createdAt,value
2022-09-24T00:00:44.280Z,7.90
2022-09-24T00:03:14.826Z,7.87
2022-09-24T00:05:45.347Z,6.85
2022-09-24T00:08:20.731Z,7.33
2022-09-24T00:10:51.096Z,7.28
2022-09-24T00:13:21.513Z,7.03
2022-09-24T00:15:52.795Z,7.53
2022-09-24T00:18:24.943Z,6.85
2022-09-24T00:20:55.635Z,7.30
2022-09-24T00:23:26.459Z,7.13
2022-09-24T00:26:14.599Z,7.55
2022-09-24T00:28:44.912Z,7.50
2022-09-24T00:31:15.305Z,7.47
2022-09-24T00:33:45.774Z,7.78
2022-09-24T00:36:16.237Z,8.60
2022-09-24T00:38:52.050Z,7.80
2022-09-24T00:41:25.688Z,8.15
2022-09-24T00:43:56.082Z,7.37
2022-09-24T00:46:35.291Z,7.92
2022-09-24T00:49:08.677Z,7.47
2022-09-24T00:51:40.323Z,7.15
2022-09-24T00:54:13.764Z,8.35
2022-09-24T00:56:45.767Z,7.97
2022-09-24T00:59:19.127Z,8.15
2022-09-24T01:01:50.508Z,8.00
2022-09-24T01:04:22.087Z,7.70
2022-09-24T01:06:53.644Z,7.90
2022-09-24T01:09:26.357Z,8.48
2022-09-24T01:12:16.613Z,7.58
2022-09-24T01:14:50.141Z,8.05
2022-09-24T01:17:29.356Z,8.30
2022-09-24T01:20:08.807Z,8.20
2022-09-24T01:22:48.075Z,8.17
2022-09-24T01:25:38.345Z,8.30
2022-09-24T01:28:27.382Z,8.10
2022-09-24T01:31:00.887Z,8.35
2022-09-24T01:33:32.911Z,8.03
2022-09-24T01:36:08.324Z,7.67
2022-09-24T01:38:44.779Z,7.87
2022-09-24T01:41:16.527Z,8.45
2022-09-24T01:43:48.361Z,8.35
2022-09-24T01:46:20.839Z,8.70
2022-09-24T01:48:51.554Z,8.75
2022-09-24T01:51:31.209Z,8.53
2022-09-24T01:54:11.218Z,8.23
2022-09-24T01:56:44.642Z,8.35
2022-09-24T01:59:20.880Z,8.10
2022-09-24T02:02:09.331Z,8.43
2022-09-24T02:04:45.600Z,8.45
2022-09-24T02:07:22.001Z,8.73
2022-09-24T02:09:52.374Z,8.83
2022-09-24T02:12:27.435Z,8.25
2022-09-24T02:15:03.817Z,8.60
2022-09-24T02:17:37.238Z,8.63
2022-09-24T02:20:10.791Z,7.83
2022-09-24T02:22:44.555Z,8.53
2022-09-24T02:25:17.991Z,8.80
2022-09-24T02:27:48.421Z,9.05
2022-09-24T02:30:19.008Z,8.55
2022-09-24T02:32:50.418Z,8.50
2022-09-24T02:35:21.006Z,8.65
2022-09-24T02:37:51.330Z,8.30
2022-09-24T02:40:22.027Z,8.67
2022-09-24T02:42:52.452Z,8.60
2022-09-24T02:45:22.763Z,8.70
2022-09-24T02:47:54.075Z,8.70
2022-09-24T02:50:25.022Z,8.75
2022-09-24T02:52:55.456Z,7.97
2022-09-24T02:55:25.917Z,8.28
2022-09-24T02:57:56.387Z,8.78
2022-09-24T03:00:26.961Z,9.10
2022-09-24T03:02:57.285Z,8.43
2022-09-24T03:05:27.640Z,8.95
2022-09-24T03:07:58.789Z,8.45
2022-09-24T03:10:29.982Z,8.60
2022-09-24T03:13:00.342Z,9.00
2022-09-24T03:15:30.657Z,8.80
2022-09-24T03:18:01.073Z,9.40
2022-09-24T03:20:31.455Z,8.67
2022-09-24T03:23:01.835Z,8.87
2022-09-24T03:25:32.419Z,9.60
2022-09-24T03:28:03.058Z,8.93
2022-09-24T03:30:51.342Z,9.50
2022-09-24T03:33:21.775Z,8.93
2022-09-24T03:35:57.991Z,9.20
2022-09-24T03:38:29.473Z,9.38
2022-09-24T03:41:00.774Z,9.13
2022-09-24T03:43:31.419Z,9.80
2022-09-24T03:46:02.267Z,9.65
2022-09-24T03:48:34.319Z,9.45
2022-09-24T03:51:07.445Z,9.30
2022-09-24T03:53:38.720Z,10.13
2022-09-24T03:56:09.794Z,9.33
2022-09-24T03:58:41.675Z,9.53
2022-09-24T04:01:13.051Z,10.28
2022-09-24T04:03:43.560Z,9.08
2022-09-24T04:06:14.315Z,9.40
2022-09-24T04:08:44.655Z,9.33
2022-09-24T04:11:15.058Z,8.80
2022-09-24T04:13:45.576Z,8.85
2022-09-24T04:16:16.202Z,8.93
2022-09-24T04:18:47.995Z,9.75
2022-09-24T04:21:18.488Z,9.43
2022-09-24T04:23:49.331Z,9.27
2022-09-24T04:26:21.003Z,9.15
2022-09-24T04:28:51.458Z,9.53
2022-09-24T04:31:22.308Z,9.08
2022-09-24T04:33:52.821Z,8.78
2022-09-24T04:36:23.247Z,9.37
2022-09-24T04:38:53.642Z,9.10
2022-09-24T04:41:23.982Z,9.45
2022-09-24T04:43:54.310Z,9.37
2022-09-24T04:46:24.802Z,8.95
2022-09-24T04:48:55.260Z,9.87
2022-09-24T04:51:25.675Z,10.48
2022-09-24T04:53:56.366Z,9.08
2022-09-24T04:56:26.870Z,9.40
2022-09-24T04:58:57.733Z,9.45
2022-09-24T05:01:28.152Z,9.23
2022-09-24T05:03:58.639Z,8.70
2022-09-24T05:06:29.493Z,8.98
2022-09-24T05:08:59.903Z,9.05
2022-09-24T05:11:30.357Z,10.75
2022-09-24T05:14:00.753Z,9.23
2022-09-24T05:16:31.631Z,9.08
2022-09-24T05:19:03.737Z,9.43
2022-09-24T05:21:34.225Z,9.03
2022-09-24T05:24:04.668Z,9.10
2022-09-24T05:26:53.297Z,9.68
2022-09-24T05:29:23.676Z,8.55
2022-09-24T05:31:54.632Z,8.23
2022-09-24T05:34:24.934Z,9.18
2022-09-24T05:36:55.197Z,10.05
2022-09-24T05:39:28.002Z,8.67
2022-09-24T05:41:58.535Z,8.90
2022-09-24T05:44:29.487Z,8.50
2022-09-24T05:47:00.704Z,9.58
2022-09-24T05:49:31.978Z,9.25
2022-09-24T05:52:03.867Z,9.28
2022-09-24T05:54:34.205Z,9.28
2022-09-24T05:57:04.681Z,8.60
2022-09-24T05:59:35.068Z,9.13
2022-09-24T06:02:05.503Z,8.98
2022-09-24T06:04:35.853Z,9.15
2022-09-24T06:07:06.245Z,9.08
2022-09-24T06:09:36.660Z,8.93
2022-09-24T06:12:10.751Z,9.20
2022-09-24T06:14:44.058Z,8.05
2022-09-24T06:17:14.427Z,8.33
2022-09-24T06:19:44.818Z,8.60
2022-09-24T06:22:16.236Z,8.40
2022-09-24T06:24:46.560Z,8.93
2022-09-24T06:27:16.951Z,9.15
2022-09-24T06:29:47.277Z,8.78
2022-09-24T06:32:19.564Z,16.90
2022-09-24T06:34:49.938Z,9.03
2022-09-24T06:37:20.363Z,8.38
2022-09-24T06:39:52.222Z,8.95
2022-09-24T06:42:22.617Z,8.83
2022-09-24T06:44:53.163Z,14.03
2022-09-24T06:47:24.068Z,13.88
2022-09-24T06:49:54.423Z,9.28
2022-09-24T06:52:24.833Z,10.58
2022-09-24T06:54:56.400Z,9.30
2022-09-24T06:57:29.052Z,10.45
2022-09-24T06:59:58.811Z,8.63
2022-09-24T07:02:31.138Z,9.03
2022-09-24T07:05:01.778Z,8.93
2022-09-24T07:07:35.260Z,9.88
2022-09-24T07:10:07.982Z,9.43
2022-09-24T07:12:38.395Z,8.73
2022-09-24T07:15:09.575Z,8.55
2022-09-24T07:17:39.965Z,9.10
2022-09-24T07:20:10.645Z,9.58
2022-09-24T07:22:43.186Z,8.93
2022-09-24T07:25:13.944Z,8.73
2022-09-24T07:27:44.329Z,9.33
2022-09-24T07:30:14.822Z,8.97
2022-09-24T07:32:45.378Z,14.00
2022-09-24T07:35:15.755Z,10.13
2022-09-24T07:37:46.153Z,9.43
2022-09-24T07:40:16.579Z,9.48
2022-09-24T07:42:50.105Z,9.38
2022-09-24T07:45:20.687Z,9.55
2022-09-24T07:48:05.625Z,9.25
2022-09-24T07:50:38.956Z,9.73
2022-09-24T07:53:12.574Z,10.45
2022-09-24T07:55:43.466Z,9.40
2022-09-24T07:58:15.094Z,11.10
2022-09-24T08:00:45.505Z,9.25
2022-09-24T08:03:15.848Z,17.67
2022-09-24T08:05:46.826Z,10.50
2022-09-24T08:08:17.276Z,9.95
2022-09-24T08:10:47.599Z,10.75
2022-09-24T08:13:18.078Z,10.58
2022-09-24T08:15:48.658Z,10.03
2022-09-24T08:18:19.194Z,10.18
2022-09-24T08:20:49.579Z,10.10
2022-09-24T08:23:20.702Z,10.93
2022-09-24T08:25:51.113Z,11.93
2022-09-24T08:28:21.437Z,10.43
2022-09-24T08:30:51.754Z,9.23
2022-09-24T08:33:22.193Z,9.60
2022-09-24T08:35:52.603Z,9.00
2022-09-24T08:38:23.110Z,9.13
2022-09-24T08:41:00.145Z,9.55
2022-09-24T08:43:41.938Z,10.18
2022-09-24T08:46:42.364Z,9.03
2022-09-24T08:49:17.050Z,9.50
2022-09-24T08:51:56.549Z,9.25
2022-09-24T08:54:30.083Z,11.03
2022-09-24T08:57:03.639Z,16.52
2022-09-24T08:59:37.300Z,10.95
2022-09-24T09:02:27.434Z,9.95
2022-09-24T09:05:01.008Z,9.98
2022-09-24T09:07:43.107Z,10.80
2022-09-24T09:10:20.794Z,10.20
2022-09-24T09:12:54.407Z,9.53
2022-09-24T09:15:37.187Z,9.93
2022-09-24T09:18:26.007Z,9.83
2022-09-24T09:20:59.431Z,9.38
2022-09-24T09:23:46.515Z,9.48
2022-09-24T09:26:19.318Z,9.50
2022-09-24T09:28:50.557Z,9.50
2022-09-24T09:31:43.769Z,9.73
2022-09-24T09:34:50.702Z,10.78
2022-09-24T09:37:26.144Z,9.80
2022-09-24T09:40:06.477Z,9.58
2022-09-24T09:42:40.275Z,9.95
2022-09-24T09:45:37.207Z,9.20
2022-09-24T09:48:11.515Z,9.23
2022-09-24T09:50:47.799Z,9.33
2022-09-24T09:53:23.982Z,9.60
2022-09-24T09:56:00.090Z,10.23
2022-09-24T09:58:33.517Z,9.20
2022-09-24T10:01:09.646Z,9.80
2022-09-24T10:03:50.302Z,9.40
2022-09-24T10:06:35.213Z,11.25
2022-09-24T10:09:17.355Z,11.88
2022-09-24T10:11:48.502Z,10.20
2022-09-24T10:14:21.616Z,8.23
2022-09-24T10:16:55.868Z,8.73
2022-09-24T10:19:28.769Z,9.98
2022-09-24T10:22:01.079Z,8.68
2022-09-24T10:24:31.680Z,8.63
2022-09-24T10:27:02.232Z,8.63
2022-09-24T10:29:53.180Z,9.70
2022-09-24T10:32:25.377Z,8.25
2022-09-24T10:35:00.425Z,9.33
2022-09-24T10:37:31.170Z,8.58
2022-09-24T10:40:13.415Z,9.18
2022-09-24T10:42:43.899Z,8.35
2022-09-24T10:45:16.597Z,8.58
2022-09-24T10:47:55.937Z,8.25
2022-09-24T10:50:35.485Z,7.92
2022-09-24T10:53:20.988Z,9.10
2022-09-24T10:56:03.806Z,9.55
2022-09-24T10:59:07.782Z,8.95
2022-09-24T11:01:41.315Z,7.92
2022-09-24T11:04:30.451Z,8.13
2022-09-24T11:07:23.514Z,7.50
2022-09-24T11:10:23.125Z,8.38
2022-09-24T11:13:15.567Z,7.75
2022-09-24T11:16:05.748Z,7.67
2022-09-24T11:18:46.705Z,7.78
2022-09-24T11:21:25.960Z,8.18
2022-09-24T11:24:11.564Z,7.50
2022-09-24T11:26:56.829Z,8.50
2022-09-24T11:30:02.103Z,9.33
2022-09-24T11:32:41.356Z,8.63
2022-09-24T11:35:29.924Z,7.30
2022-09-24T11:38:05.877Z,7.90
2022-09-24T11:41:10.302Z,7.35
2022-09-24T11:43:46.290Z,7.80
2022-09-24T11:46:23.275Z,9.23
2022-09-24T11:49:24.095Z,7.65
2022-09-24T11:52:06.277Z,7.67
2022-09-24T11:54:59.021Z,9.00
2022-09-24T11:57:35.115Z,61.65
2022-09-24T12:00:20.442Z,48.08
2022-09-24T12:02:56.716Z,57.93
2022-09-24T12:05:32.992Z,10.88
2022-09-24T12:08:27.821Z,26.20
2022-09-24T12:11:04.092Z,13.90
2022-09-24T12:13:58.979Z,6.80
2022-09-24T12:16:33.185Z,20.80
2022-09-24T12:19:24.002Z,7.90
2022-09-24T12:21:56.349Z,7.40
2022-09-24T12:24:42.018Z,7.35
2022-09-24T12:27:18.484Z,7.40
2022-09-24T12:30:18.116Z,35.55
2022-09-24T12:32:57.711Z,7.15
2022-09-24T12:35:31.717Z,13.55
2022-09-24T12:38:14.026Z,18.50
2022-09-24T12:40:53.397Z,11.38
2022-09-24T12:43:32.460Z,9.90
2022-09-24T12:46:05.077Z,7.65
2022-09-24T12:48:38.172Z,6.60
2022-09-24T12:51:10.288Z,10.48
2022-09-24T12:53:43.950Z,6.78
2022-09-24T12:56:15.827Z,7.05
2022-09-24T12:58:48.329Z,7.20
2022-09-24T13:01:27.649Z,5.60
2022-09-24T13:04:08.060Z,7.12
2022-09-24T13:06:40.246Z,7.03
2022-09-24T13:09:34.188Z,8.25
2022-09-24T13:12:19.872Z,7.60
2022-09-24T13:14:53.326Z,6.92
2022-09-24T13:17:25.080Z,6.90
2022-09-24T13:20:00.654Z,6.45
2022-09-24T13:22:34.668Z,8.15
2022-09-24T13:25:14.348Z,7.35
2022-09-24T13:27:45.206Z,6.65
2022-09-24T13:30:24.990Z,6.35
2022-09-24T13:33:14.761Z,7.85
2022-09-24T13:35:48.334Z,6.33
2022-09-24T13:38:34.050Z,6.80
2022-09-24T13:41:22.540Z,6.70
2022-09-24T13:43:55.913Z,10.58
2022-09-24T13:46:29.037Z,8.38
2022-09-24T13:49:03.603Z,7.60
2022-09-24T13:51:36.743Z,6.90
2022-09-24T13:54:10.196Z,7.42
2022-09-24T13:56:40.665Z,11.22
2022-09-24T13:59:13.362Z,8.93
2022-09-24T14:01:46.484Z,7.47
2022-09-24T14:04:20.734Z,7.40
2022-09-24T14:06:54.265Z,7.33
2022-09-24T14:09:27.917Z,7.10
2022-09-24T14:12:01.434Z,6.95
2022-09-24T14:14:34.805Z,8.30
2022-09-24T14:17:09.971Z,7.00
2022-09-24T14:19:40.413Z,7.17
2022-09-24T14:22:16.938Z,7.50
2022-09-24T14:24:58.930Z,7.45
2022-09-24T14:27:31.837Z,7.42
2022-09-24T14:30:05.652Z,6.75
2022-09-24T14:32:39.369Z,8.75
2022-09-24T14:35:12.820Z,7.40
2022-09-24T14:37:52.051Z,6.42
2022-09-24T14:40:24.308Z,7.20
2022-09-24T14:42:58.100Z,6.80
2022-09-24T14:45:33.095Z,6.42
2022-09-24T14:48:08.680Z,6.35
2022-09-24T14:50:41.527Z,6.42
2022-09-24T14:53:27.052Z,7.28
2022-09-24T14:55:57.417Z,6.50
2022-09-24T14:58:32.515Z,6.08
2022-09-24T15:01:08.807Z,6.33
2022-09-24T15:03:42.072Z,6.17
2022-09-24T15:06:27.651Z,6.37
2022-09-24T15:09:29.710Z,5.92
2022-09-24T15:12:10.826Z,6.12
2022-09-24T15:14:42.261Z,5.83
2022-09-24T15:17:25.991Z,5.90
2022-09-24T15:19:57.842Z,5.53
2022-09-24T15:22:29.934Z,5.83
2022-09-24T15:25:02.329Z,6.08
2022-09-24T15:27:35.062Z,5.75
2022-09-24T15:30:07.920Z,5.92
2022-09-24T15:32:38.475Z,9.88
2022-09-24T15:35:09.580Z,8.38
2022-09-24T15:37:41.204Z,6.50
2022-09-24T15:40:24.622Z,6.45
2022-09-24T15:42:55.035Z,6.50
2022-09-24T15:45:26.253Z,6.42
2022-09-24T15:47:56.685Z,6.55
2022-09-24T15:50:27.118Z,6.25
2022-09-24T15:53:18.570Z,5.78
2022-09-24T15:55:55.759Z,5.95
2022-09-24T15:58:26.451Z,5.72
2022-09-24T16:00:57.275Z,6.12
2022-09-24T16:03:32.859Z,6.00
2022-09-24T16:06:03.346Z,6.45
2022-09-24T16:08:33.750Z,8.30
2022-09-24T16:11:08.893Z,7.45
2022-09-24T16:13:37.823Z,6.87
2022-09-24T16:16:08.965Z,6.92
2022-09-24T16:18:40.675Z,6.92
2022-09-24T16:21:11.070Z,13.05
2022-09-24T16:23:41.538Z,6.83
2022-09-24T16:26:11.934Z,6.40
2022-09-24T16:28:42.382Z,6.50
2022-09-24T16:31:12.782Z,6.30
2022-09-24T16:33:43.244Z,6.92
2022-09-24T16:36:13.923Z,7.00
2022-09-24T16:38:44.594Z,7.47
2022-09-24T16:41:15.013Z,7.70
2022-09-24T16:43:45.487Z,7.80
2022-09-24T16:46:20.381Z,7.65
2022-09-24T16:48:50.463Z,8.38
2022-09-24T16:51:21.545Z,8.13
2022-09-24T16:53:55.899Z,8.53
2022-09-24T16:56:26.581Z,8.65
2022-09-24T16:58:57.875Z,8.73
2022-09-24T17:01:28.356Z,9.58
2022-09-24T17:03:59.700Z,10.23
2022-09-24T17:06:32.436Z,9.80
2022-09-24T17:09:21.296Z,10.20
2022-09-24T17:14:57.682Z,10.32
2022-09-24T17:17:28.648Z,10.82
2022-09-24T17:19:59.053Z,10.95
2022-09-24T17:22:30.777Z,12.55
2022-09-24T17:25:01.131Z,11.93
2022-09-24T17:27:32.225Z,12.35
2022-09-24T17:30:03.834Z,12.13
2022-09-24T17:32:34.283Z,12.68
2022-09-24T17:35:06.591Z,13.10
2022-09-24T17:37:37.014Z,12.53
2022-09-24T17:40:07.960Z,13.15
2022-09-24T17:42:38.686Z,12.25
2022-09-24T17:45:10.031Z,11.88
2022-09-24T17:48:00.370Z,12.07
2022-09-24T17:50:32.322Z,11.50
2022-09-24T17:53:03.789Z,12.00
2022-09-24T17:55:34.179Z,11.90
2022-09-24T17:58:04.585Z,11.08
2022-09-24T18:00:34.971Z,10.65
2022-09-24T18:03:06.098Z,9.88
2022-09-24T18:05:36.521Z,10.10
2022-09-24T18:08:08.370Z,9.53
2022-09-24T18:10:39.278Z,9.25
2022-09-24T18:13:09.704Z,8.78
2022-09-24T18:15:40.628Z,8.58
2022-09-24T18:18:11.375Z,8.25
2022-09-24T18:20:42.114Z,8.75
2022-09-24T18:23:13.880Z,8.68
2022-09-24T18:25:44.259Z,8.35
2022-09-24T18:28:18.590Z,8.95
2022-09-24T18:30:46.747Z,9.18
2022-09-24T18:33:17.217Z,9.55
2022-09-24T18:35:47.627Z,10.30
2022-09-24T18:38:18.207Z,12.18
2022-09-24T18:40:49.230Z,13.03
2022-09-24T18:43:19.677Z,12.58
2022-09-24T18:45:49.987Z,13.62
2022-09-24T18:48:21.414Z,13.10
2022-09-24T18:50:51.727Z,12.98
2022-09-24T18:53:22.177Z,13.70
2022-09-24T18:55:53.421Z,13.48
2022-09-24T18:58:24.038Z,13.62
2022-09-24T19:01:02.693Z,12.90
2022-09-24T19:03:33.342Z,12.90
2022-09-24T19:06:05.698Z,12.68
2022-09-24T19:08:37.589Z,12.90
2022-09-24T19:11:13.882Z,13.40
2022-09-24T19:13:46.560Z,13.60
2022-09-24T19:16:18.541Z,13.35
2022-09-24T19:18:49.166Z,12.33
2022-09-24T19:21:19.584Z,13.18
2022-09-24T19:23:52.375Z,14.13
2022-09-24T19:26:25.789Z,13.55
2022-09-24T19:28:57.275Z,13.15
2022-09-24T19:31:34.523Z,13.50
2022-09-24T19:34:06.490Z,13.03
2022-09-24T19:36:43.420Z,12.30
2022-09-24T19:39:16.250Z,13.55
2022-09-24T19:41:47.356Z,13.60
2022-09-24T19:44:19.405Z,13.03
2022-09-24T19:46:49.816Z,13.05
2022-09-24T19:49:20.257Z,12.90
2022-09-24T19:51:50.673Z,13.05
2022-09-24T19:54:21.142Z,13.50
2022-09-24T19:56:51.585Z,12.88
2022-09-24T19:59:22.006Z,13.50
2022-09-24T20:01:52.549Z,14.38
2022-09-24T20:04:24.054Z,13.53
2022-09-24T20:06:54.800Z,14.00
2022-09-24T20:09:27.251Z,13.98
2022-09-24T20:11:58.238Z,13.53
2022-09-24T20:14:33.444Z,12.93
2022-09-24T20:17:00.749Z,13.10
2022-09-24T20:19:31.061Z,12.73
2022-09-24T20:22:01.455Z,13.25
2022-09-24T20:24:31.778Z,13.98
2022-09-24T20:27:20.202Z,12.15
2022-09-24T20:29:50.685Z,12.50
2022-09-24T20:32:21.091Z,11.90
2022-09-24T20:34:51.502Z,11.97
2022-09-24T20:37:21.963Z,12.05
2022-09-24T20:39:52.379Z,11.88
2022-09-24T20:42:22.764Z,11.95
2022-09-24T20:44:53.747Z,12.50
2022-09-24T20:47:24.204Z,12.63
2022-09-24T20:49:55.048Z,12.25
2022-09-24T20:52:25.453Z,12.70
2022-09-24T20:54:55.861Z,13.05
2022-09-24T20:57:28.265Z,12.95
2022-09-24T20:59:58.711Z,13.00
2022-09-24T21:02:29.268Z,12.53
2022-09-24T21:04:59.808Z,13.43
2022-09-24T21:07:30.123Z,13.62
2022-09-24T21:10:00.790Z,12.75
2022-09-24T21:12:31.131Z,13.90
2022-09-24T21:15:02.330Z,13.80
2022-09-24T21:17:32.886Z,14.05
2022-09-24T21:20:04.129Z,13.83
2022-09-24T21:22:34.452Z,14.90
2022-09-24T21:25:06.545Z,14.20
2022-09-24T21:27:37.840Z,13.22
2022-09-24T21:30:09.145Z,13.58
2022-09-24T21:32:41.271Z,15.90
2022-09-24T21:35:11.645Z,15.58
2022-09-24T21:37:41.964Z,15.38
2022-09-24T21:40:13.041Z,15.80
2022-09-24T21:42:43.980Z,16.45
2022-09-24T21:45:14.444Z,16.30
2022-09-24T21:47:44.820Z,18.42
2022-09-24T21:50:18.140Z,17.10
2022-09-24T21:52:50.365Z,16.40
2022-09-24T21:55:20.750Z,16.70
2022-09-24T21:57:51.175Z,16.32
2022-09-24T22:00:22.880Z,16.87
2022-09-24T22:02:53.342Z,17.60
2022-09-24T22:05:23.825Z,16.90
2022-09-24T22:07:55.216Z,17.10
2022-09-24T22:10:25.588Z,16.60
2022-09-24T22:12:56.205Z,16.07
2022-09-24T22:15:26.601Z,16.62
2022-09-24T22:17:57.002Z,17.17
2022-09-24T22:20:28.555Z,17.67
2022-09-24T22:22:58.991Z,17.07
2022-09-24T22:25:29.441Z,16.80
2022-09-24T22:27:59.859Z,17.30
2022-09-24T22:30:31.290Z,17.55
2022-09-24T22:33:01.695Z,17.65
2022-09-24T22:35:44.463Z,16.93
2022-09-24T22:38:16.420Z,17.48
2022-09-24T22:40:47.938Z,16.48
2022-09-24T22:43:18.468Z,16.93
2022-09-24T22:45:48.915Z,15.50
2022-09-24T22:48:19.492Z,15.03
2022-09-24T22:50:49.900Z,14.63
2022-09-24T22:53:21.014Z,14.90
2022-09-24T22:55:53.177Z,15.03
2022-09-24T22:58:23.659Z,14.07
2022-09-24T23:00:54.312Z,15.38
2022-09-24T23:03:24.885Z,14.33
2022-09-24T23:05:57.687Z,15.03
2022-09-24T23:08:35.934Z,14.87
2022-09-24T23:11:17.610Z,14.55
2022-09-24T23:13:50.157Z,14.40
2022-09-24T23:16:23.716Z,13.65
2022-09-24T23:18:59.526Z,13.35
2022-09-24T23:21:31.780Z,13.70
2022-09-24T23:24:19.811Z,12.70
2022-09-24T23:26:51.233Z,14.20
2022-09-24T23:29:21.562Z,12.90
2022-09-24T23:31:51.961Z,13.18
2022-09-24T23:34:22.335Z,13.05
2022-09-24T23:36:53.099Z,13.13
2022-09-24T23:39:23.705Z,13.10
2022-09-24T23:41:54.119Z,12.88
2022-09-24T23:44:24.590Z,12.30
2022-09-24T23:46:56.500Z,13.13
2022-09-24T23:49:27.416Z,12.65
2022-09-24T23:51:57.941Z,12.80
2022-09-24T23:54:28.439Z,12.93
2022-09-24T23:56:58.833Z,13.13
2022-09-24T23:59:29.922Z,12.73
